Time;durP1;ratioP1;P1;durP2;ratioP2;P2;SDS_P1;SDS_P2;PMS_P1;PMS_P2;Temp;Humidity;BMP_temperature;BMP_pressure;BME280_temperature;BME280_humidity;BME280_pressure;Samples;Min_cycle;Max_cycle;Signal;HPM_P1;HPM_P2
2023/05/07 00:00:37;;;;;;;9.43;8.52;;;;;;;13.60;100.00;101570.84;5102322;28;20026;-73
2023/05/07 00:03:06;;;;;;;9.60;8.63;;;;;;;13.65;100.00;101570.75;5100864;28;20035;-73
2023/05/07 00:05:31;;;;;;;8.90;8.10;;;;;;;13.64;100.00;101569.88;5098092;28;20073;-73
2023/05/07 00:07:57;;;;;;;10.85;8.50;;;;;;;13.66;100.00;101570.69;5091932;28;20035;-72
2023/05/07 00:10:22;;;;;;;8.57;7.78;;;;;;;13.69;100.00;101570.59;5091141;28;20028;-72
2023/05/07 00:12:47;;;;;;;10.05;8.30;;;;;;;13.68;100.00;101576.75;5100887;28;20043;-72
2023/05/07 00:15:12;;;;;;;9.40;8.35;;;;;;;13.69;100.00;101569.75;5093812;28;20051;-73
2023/05/07 00:17:38;;;;;;;10.38;8.77;;;;;;;13.65;100.00;101568.13;5092414;28;20076;-72
2023/05/07 00:20:04;;;;;;;10.93;8.70;;;;;;;13.65;100.00;101570.75;5092425;28;20667;-73
2023/05/07 00:22:30;;;;;;;9.77;8.80;;;;;;;13.61;100.00;101556.00;5094131;28;20020;-73
2023/05/07 00:24:56;;;;;;;11.50;9.00;;;;;;;13.57;100.00;101549.97;5090469;28;20379;-72
2023/05/07 00:27:21;;;;;;;9.70;8.77;;;;;;;13.53;100.00;101554.41;5093535;28;20032;-73
2023/05/07 00:29:47;;;;;;;11.35;9.50;;;;;;;13.52;100.00;101557.06;5092008;28;20028;-73
2023/05/07 00:32:12;;;;;;;16.45;10.75;;;;;;;13.54;100.00;101557.91;5088493;28;20103;-72
2023/05/07 00:34:39;;;;;;;13.40;10.80;;;;;;;13.55;100.00;101557.84;5092448;28;20028;-73
2023/05/07 00:37:05;;;;;;;12.85;10.02;;;;;;;13.57;100.00;101553.44;5094340;28;20020;-73
2023/05/07 00:39:30;;;;;;;12.20;9.82;;;;;;;13.59;100.00;101549.00;5092840;28;20030;-72
2023/05/07 00:41:55;;;;;;;12.25;11.00;;;;;;;13.62;100.00;101553.31;5092576;28;20024;-73
2023/05/07 00:44:20;;;;;;;11.23;10.13;;;;;;;13.60;100.00;101549.88;5102267;28;20406;-73
2023/05/07 00:46:49;;;;;;;11.77;10.57;;;;;;;13.55;100.00;101539.53;5091989;28;20028;-73
2023/05/07 00:49:15;;;;;;;11.95;10.27;;;;;;;13.62;100.00;101549.84;5091650;28;20498;-73
2023/05/07 00:51:41;;;;;;;11.45;10.27;;;;;;;13.57;100.00;101535.13;5092349;28;20058;-73
2023/05/07 00:54:07;;;;;;;11.55;10.43;;;;;;;13.65;100.00;101539.28;5093131;28;20048;-73
2023/05/07 00:56:33;;;;;;;12.40;10.02;;;;;;;13.62;100.00;101537.59;5090926;28;20032;-73
2023/05/07 00:58:58;;;;;;;15.27;10.68;;;;;;;13.60;100.00;101547.25;5096730;28;20089;-72
2023/05/07 01:01:24;;;;;;;15.05;10.45;;;;;;;13.58;100.00;101552.53;5090786;28;20490;-73
2023/05/07 01:03:49;;;;;;;11.18;10.10;;;;;;;13.59;100.00;101545.53;5089310;28;20459;-72
2023/05/07 01:06:16;;;;;;;12.18;10.50;;;;;;;13.58;100.00;101547.31;5091765;28;20036;-72
2023/05/07 01:08:42;;;;;;;11.60;10.40;;;;;;;13.57;100.00;101542.97;5092566;28;20023;-72
2023/05/07 01:11:08;;;;;;;12.18;10.45;;;;;;;13.60;100.00;101549.88;5089735;28;20024;-72
2023/05/07 01:13:36;;;;;;;12.07;10.77;;;;;;;13.60;100.00;101555.13;5099166;28;20368;-73
2023/05/07 01:16:02;;;;;;;12.70;11.40;;;;;;;13.56;100.00;101538.63;5090976;28;20093;-72
2023/05/07 01:18:29;;;;;;;13.77;12.43;;;;;;;13.56;100.00;101538.63;5092643;28;20038;-73
2023/05/07 01:20:57;;;;;;;13.68;11.70;;;;;;;13.57;100.00;101539.50;5095405;28;20054;-72
2023/05/07 01:23:24;;;;;;;14.13;11.27;;;;;;;13.57;100.00;101534.25;5090556;28;20032;-72
2023/05/07 01:25:53;;;;;;;14.77;12.15;;;;;;;13.55;100.00;101528.19;5089821;28;20103;-72
2023/05/07 01:28:18;;;;;;;15.90;13.15;;;;;;;13.52;100.00;101523.03;5091338;28;20040;-72
2023/05/07 01:30:48;;;;;;;14.73;11.73;;;;;;;13.51;100.00;101518.69;5092435;28;20108;-73
2023/05/07 01:33:18;;;;;;;14.52;12.20;;;;;;;13.48;100.00;101510.91;5091849;28;20032;-73
2023/05/07 01:35:48;;;;;;;15.57;12.85;;;;;;;13.48;100.00;101519.63;5091132;28;20047;-72
2023/05/07 01:38:14;;;;;;;13.27;11.95;;;;;;;13.45;100.00;101513.59;5093019;28;20171;-73
2023/05/07 01:40:40;;;;;;;13.43;11.98;;;;;;;13.38;100.00;101512.88;5092320;28;20446;-73
2023/05/07 01:43:06;;;;;;;13.95;12.52;;;;;;;13.33;100.00;101506.88;5091987;28;20032;-72
2023/05/07 01:45:32;;;;;;;14.70;12.63;;;;;;;13.35;100.00;101512.97;5092560;28;20133;-73
2023/05/07 01:48:02;;;;;;;15.68;13.30;;;;;;;13.34;100.00;101508.59;5093268;28;20129;-73
2023/05/07 01:50:29;;;;;;;15.55;13.90;;;;;;;13.33;100.00;101507.75;5091754;28;20020;-73
2023/05/07 01:52:55;;;;;;;17.60;14.15;;;;;;;13.33;100.00;101510.38;5092502;28;20031;-73
2023/05/07 01:55:20;;;;;;;15.30;13.70;;;;;;;13.34;100.00;101511.22;5092275;28;20376;-72
2023/05/07 01:57:45;;;;;;;16.02;13.93;;;;;;;13.32;100.00;101507.78;5090870;28;20049;-73
2023/05/07 02:00:11;;;;;;;17.38;14.55;;;;;;;13.29;100.00;101503.50;5092444;28;20032;-72
2023/05/07 02:02:37;;;;;;;18.10;15.27;;;;;;;13.18;100.00;101492.41;5091947;28;20059;-73
2023/05/07 02:05:03;;;;;;;17.92;15.05;;;;;;;13.21;100.00;101505.41;5093037;28;20023;-73
2023/05/07 02:07:29;;;;;;;17.45;15.57;;;;;;;13.17;100.00;101498.50;5091326;28;20399;-72
2023/05/07 02:09:55;;;;;;;17.20;15.35;;;;;;;13.21;100.00;101504.53;5090505;28;20077;-73
2023/05/07 02:12:21;;;;;;;18.20;16.30;;;;;;;13.18;100.00;101495.00;5079924;28;20081;-73
2023/05/07 02:14:46;;;;;;;17.95;16.05;;;;;;;13.22;100.00;101501.88;5102364;28;20495;-73
2023/05/07 02:17:11;;;;;;;18.90;16.85;;;;;;;13.24;100.00;101505.38;5112277;28;20032;-73
2023/05/07 02:19:37;;;;;;;19.40;16.63;;;;;;;13.26;100.00;101503.56;5110015;28;20031;-73
2023/05/07 02:22:02;;;;;;;19.15;16.92;;;;;;;13.26;100.00;101502.69;5098569;28;20031;-73
2023/05/07 02:24:27;;;;;;;22.42;17.58;;;;;;;13.25;100.00;101509.69;5104591;28;20019;-73
2023/05/07 02:26:52;;;;;;;22.92;19.17;;;;;;;13.26;100.00;101515.78;5095934;28;20486;-73
2023/05/07 02:29:18;;;;;;;23.08;17.85;;;;;;;13.25;100.00;101521.94;5101730;28;20089;-73
2023/05/07 02:31:43;;;;;;;21.80;17.63;;;;;;;13.08;100.00;101493.50;5099755;28;20028;-73
2023/05/07 02:34:08;;;;;;;21.30;18.63;;;;;;;13.21;100.00;101509.75;5102935;28;20028;-72
2023/05/07 02:36:34;;;;;;;20.65;18.52;;;;;;;13.28;100.00;101517.50;5091496;28;20063;-73
2023/05/07 02:39:00;;;;;;;19.95;17.88;;;;;;;13.26;100.00;101513.19;5096718;28;20035;-72
2023/05/07 02:41:25;;;;;;;20.95;18.75;;;;;;;13.26;100.00;101514.03;5104858;28;20020;-73
2023/05/07 02:43:50;;;;;;;20.88;18.48;;;;;;;13.23;100.00;101508.84;5096090;28;20028;-72
2023/05/07 02:46:16;;;;;;;21.02;18.67;;;;;;;13.27;100.00;101513.13;5102204;28;20040;-73
2023/05/07 02:48:41;;;;;;;21.63;18.05;;;;;;;13.25;100.00;101514.09;5107226;28;20038;-73
2023/05/07 02:51:06;;;;;;;22.88;18.95;;;;;;;13.25;100.00;101520.19;5110491;28;20528;-72
2023/05/07 02:53:32;;;;;;;22.08;19.65;;;;;;;13.26;100.00;101534.13;5094883;28;20498;-72
2023/05/07 02:55:58;;;;;;;23.27;20.30;;;;;;;13.24;100.00;101526.31;5094925;28;20115;-72
2023/05/07 02:58:24;;;;;;;24.52;20.45;;;;;;;13.24;100.00;101520.16;5103988;28;20035;-72
2023/05/07 03:00:50;;;;;;;24.35;20.35;;;;;;;13.28;100.00;101527.97;5103444;28;20028;-72
2023/05/07 03:03:15;;;;;;;24.95;20.75;;;;;;;13.27;100.00;101520.97;5100335;28;20534;-73
2023/05/07 03:05:41;;;;;;;30.13;21.73;;;;;;;13.28;100.00;101512.25;5104993;28;20115;-72
2023/05/07 03:08:07;;;;;;;25.67;21.38;;;;;;;13.29;100.00;101516.56;5096926;28;20040;-72
2023/05/07 03:10:32;;;;;;;26.40;22.15;;;;;;;13.29;100.00;101516.56;5100750;28;20544;-73
2023/05/07 03:12:57;;;;;;;27.70;22.90;;;;;;;13.29;100.00;101510.50;5103036;28;20063;-73
2023/05/07 03:15:22;;;;;;;26.90;22.92;;;;;;;13.29;100.00;101510.50;5096279;28;20490;-72
2023/05/07 03:17:51;;;;;;;25.75;22.70;;;;;;;13.27;100.00;101514.88;5099569;28;20073;-73
2023/05/07 03:20:16;;;;;;;30.02;24.67;;;;;;;13.25;100.00;101512.31;5106180;28;20110;-72
2023/05/07 03:22:42;;;;;;;28.92;24.20;;;;;;;13.26;100.00;101511.41;5109733;27;20118;-73
2023/05/07 03:25:08;;;;;;;29.55;25.08;;;;;;;13.25;100.00;101504.47;5107977;28;20103;-73
2023/05/07 03:27:34;;;;;;;28.08;24.58;;;;;;;13.22;100.00;101496.66;5106056;28;20040;-73
2023/05/07 03:29:59;;;;;;;31.73;24.85;;;;;;;13.29;100.00;101505.25;5099235;28;20036;-73
2023/05/07 03:32:25;;;;;;;29.90;25.08;;;;;;;13.24;100.00;101497.53;5095589;28;20479;-72
2023/05/07 03:34:50;;;;;;;30.38;25.48;;;;;;;13.25;100.00;101496.63;5096836;28;20532;-73
2023/05/07 03:37:15;;;;;;;31.80;26.77;;;;;;;13.25;100.00;101501.84;5100953;28;20027;-73
2023/05/07 03:39:41;;;;;;;32.75;26.83;;;;;;;13.24;100.00;101500.13;5108525;28;20031;-73
2023/05/07 03:42:06;;;;;;;29.52;26.13;;;;;;;13.25;100.00;101498.38;5094118;28;20020;-73
2023/05/07 03:44:32;;;;;;;31.55;26.40;;;;;;;13.25;100.00;101490.53;5102830;28;20016;-73
2023/05/07 03:46:57;;;;;;;30.52;25.88;;;;;;;13.26;100.00;101493.09;5094673;28;20539;-72
2023/05/07 03:49:23;;;;;;;30.90;25.80;;;;;;;13.26;100.00;101493.09;5097723;28;20028;-73
2023/05/07 03:51:48;;;;;;;33.22;27.67;;;;;;;13.26;100.00;101493.09;5099736;28;20028;-73
2023/05/07 03:54:13;;;;;;;33.20;27.83;;;;;;;13.23;100.00;101493.13;5105709;28;20023;-72
2023/05/07 03:56:38;;;;;;;33.97;29.40;;;;;;;13.22;100.00;101488.78;5105884;28;20035;-73
2023/05/07 03:59:04;;;;;;;38.40;27.98;;;;;;;13.23;100.00;101505.34;5108739;28;20054;-73
2023/05/07 04:01:29;;;;;;;34.47;28.30;;;;;;;13.15;100.00;101494.22;5097143;28;20028;-73
2023/05/07 04:03:55;;;;;;;34.70;28.60;;;;;;;13.25;100.00;101512.31;5097005;28;20028;-72
2023/05/07 04:06:20;;;;;;;34.90;29.35;;;;;;;13.26;100.00;101515.78;5100049;28;20027;-73
2023/05/07 04:08:45;;;;;;;33.15;28.30;;;;;;;13.27;100.00;101513.13;5108414;28;20467;-73
2023/05/07 04:11:11;;;;;;;39.17;30.80;;;;;;;13.28;100.00;101520.09;5098434;28;20446;-73
2023/05/07 04:13:36;;;;;;;37.15;30.38;;;;;;;13.26;100.00;101519.28;5106152;28;20039;-73
2023/05/07 04:16:03;;;;;;;33.63;29.35;;;;;;;13.33;100.00;101527.84;5102870;28;20044;-73
2023/05/07 04:18:29;;;;;;;36.13;29.95;;;;;;;13.32;100.00;101526.97;5106403;28;20391;-73
2023/05/07 04:20:54;;;;;;;36.72;29.27;;;;;;;13.34;100.00;101533.06;5102411;28;20020;-73
2023/05/07 04:23:20;;;;;;;35.95;29.77;;;;;;;13.35;100.00;101526.91;5108807;28;20024;-73
2023/05/07 04:25:45;;;;;;;33.17;28.92;;;;;;;13.32;100.00;101519.13;5097378;28;20439;-73
2023/05/07 04:28:11;;;;;;;33.42;28.58;;;;;;;13.38;100.00;101527.75;5094135;28;20538;-73
2023/05/07 04:30:37;;;;;;;38.72;30.50;;;;;;;13.36;100.00;101535.63;5093479;28;20035;-73
2023/05/07 04:33:02;;;;;;;35.67;28.00;;;;;;;13.39;100.00;101538.16;5094405;28;20434;-73
2023/05/07 04:35:27;;;;;;;33.47;29.40;;;;;;;13.40;100.00;101536.41;5095115;28;20039;-72
2023/05/07 04:37:52;;;;;;;31.17;26.73;;;;;;;13.40;100.00;101521.56;5095079;28;20048;-73
2023/05/07 04:40:18;;;;;;;34.72;29.05;;;;;;;13.43;100.00;101526.72;5098262;28;20028;-73
2023/05/07 04:42:43;;;;;;;36.17;28.65;;;;;;;13.44;100.00;101527.56;5097315;28;20111;-73
2023/05/07 04:45:10;;;;;;;35.97;28.83;;;;;;;13.43;100.00;101524.09;5096725;28;20058;-73
2023/05/07 04:47:35;;;;;;;33.88;29.98;;;;;;;13.44;100.00;101531.06;5101065;28;20059;-73
2023/05/07 04:50:01;;;;;;;34.63;29.40;;;;;;;13.36;100.00;101514.66;5105593;28;20101;-73
2023/05/07 04:52:26;;;;;;;37.83;29.65;;;;;;;13.44;100.00;101530.19;5095400;28;20386;-73
2023/05/07 04:54:51;;;;;;;34.92;29.88;;;;;;;13.44;100.00;101532.81;5096402;28;20028;-73
2023/05/07 04:57:17;;;;;;;37.60;30.17;;;;;;;13.50;100.00;101543.13;5094507;28;20032;-73
2023/05/07 04:59:43;;;;;;;36.30;30.13;;;;;;;13.50;100.00;101536.13;5100173;28;20092;-73
2023/05/07 05:02:10;;;;;;;35.47;29.33;;;;;;;13.58;100.00;101543.81;5094555;28;20521;-73
2023/05/07 05:04:36;;;;;;;36.78;30.23;;;;;;;13.59;100.00;101542.91;5096117;28;20019;-73
2023/05/07 05:07:03;;;;;;;35.83;29.95;;;;;;;13.66;100.00;101544.47;5091982;28;20040;-73
2023/05/07 05:09:28;;;;;;;36.40;31.15;;;;;;;13.62;100.00;101535.00;5109204;28;20065;-73
2023/05/07 05:11:54;;;;;;;37.92;30.48;;;;;;;13.71;100.00;101552.25;5098770;28;20031;-73
2023/05/07 05:14:19;;;;;;;35.47;30.13;;;;;;;13.77;100.00;101549.47;5099110;28;20032;-73
2023/05/07 05:16:44;;;;;;;35.35;28.70;;;;;;;13.84;100.00;101543.16;5103814;28;20031;-73
2023/05/07 05:19:10;;;;;;;34.85;29.75;;;;;;;13.92;100.00;101541.19;5101641;28;20172;-73
2023/05/07 05:21:35;;;;;;;37.45;29.88;;;;;;;14.04;100.00;101540.03;5106642;28;20035;-73
2023/05/07 05:24:00;;;;;;;33.35;29.60;;;;;;;14.07;100.00;101537.31;5106757;27;20110;-73
2023/05/07 05:26:26;;;;;;;36.60;30.30;;;;;;;14.18;100.00;101542.28;5102239;28;20146;-73
2023/05/07 05:28:51;;;;;;;34.83;28.88;;;;;;;14.21;100.00;101542.19;5094500;28;20501;-73
2023/05/07 05:31:16;;;;;;;34.10;29.17;;;;;;;14.27;100.00;101550.75;5094965;28;20020;-73
2023/05/07 05:33:42;;;;;;;33.40;27.92;;;;;;;14.31;100.00;101553.28;5100013;28;20463;-73
2023/05/07 05:36:10;;;;;;;31.58;28.25;;;;;;;14.32;100.00;101562.88;5097041;28;20032;-73
2023/05/07 05:38:35;;;;;;;32.25;28.17;;;;;;;14.32;100.00;101557.63;5093363;28;20063;-73
2023/05/07 05:41:00;;;;;;;34.00;28.17;;;;;;;14.36;100.00;101546.16;5104430;28;20066;-73
2023/05/07 05:43:26;;;;;;;31.38;27.92;;;;;;;14.43;100.00;101552.94;5096367;28;20036;-73
2023/05/07 05:45:51;;;;;;;33.92;28.23;;;;;;;14.45;100.00;101567.75;5097611;28;20032;-73
2023/05/07 05:48:16;;;;;;;32.47;28.98;;;;;;;14.45;100.00;101566.88;5091661;28;20088;-73
2023/05/07 05:50:42;;;;;;;32.05;28.48;;;;;;;14.48;100.00;101572.03;5099418;28;20040;-73
2023/05/07 05:53:10;;;;;;;30.40;27.17;;;;;;;14.49;100.00;101563.28;5113682;28;20016;-73
2023/05/07 05:55:35;;;;;;;34.33;29.98;;;;;;;14.51;100.00;101569.34;5099167;28;20024;-73
2023/05/07 05:58:01;;;;;;;32.55;28.73;;;;;;;14.54;100.00;101565.78;5113485;28;20028;-73
2023/05/07 06:00:27;;;;;;;33.42;28.33;;;;;;;14.62;100.00;101569.06;5098691;28;20078;-73
2023/05/07 06:02:52;;;;;;;34.50;28.98;;;;;;;14.68;100.00;101567.13;5107976;28;20019;-72
2023/05/07 06:05:18;;;;;;;30.45;27.15;;;;;;;14.70;100.00;101562.69;5096653;27;20039;-73
2023/05/07 06:07:43;;;;;;;29.88;26.63;;;;;;;14.73;100.00;101559.97;5108310;28;20038;-73
2023/05/07 06:10:09;;;;;;;31.95;27.42;;;;;;;14.82;100.00;101568.50;5091673;28;20455;-73
2023/05/07 06:12:34;;;;;;;30.20;26.88;;;;;;;14.89;100.00;101572.66;5095555;28;20031;-73
2023/05/07 06:14:59;;;;;;;31.35;27.58;;;;;;;14.95;100.00;101568.06;5095766;28;20089;-73
2023/05/07 06:17:25;;;;;;;30.58;27.35;;;;;;;14.99;100.00;101560.94;5090229;28;20480;-73
2023/05/07 06:19:51;;;;;;;29.70;26.55;;;;;;;15.05;100.00;101571.28;5098614;28;20030;-73
2023/05/07 06:22:16;;;;;;;29.63;26.35;;;;;;;15.10;100.00;101566.72;5093251;28;20546;-73
2023/05/07 06:24:41;;;;;;;29.33;26.17;;;;;;;15.19;100.00;101576.09;5091772;28;20173;-73
2023/05/07 06:27:06;;;;;;;29.63;26.48;;;;;;;15.25;100.00;101572.44;5095298;28;20386;-73
2023/05/07 06:29:33;;;;;;;30.15;25.65;;;;;;;15.31;100.00;101569.63;5103334;28;20128;-73
2023/05/07 06:32:07;;;;;;;27.80;24.85;;;;;;;15.39;100.00;101570.22;5101347;28;20098;-73
2023/05/07 06:34:36;;;;;;;27.95;23.88;;;;;;;15.52;100.00;101574.16;5102012;28;20035;-73
2023/05/07 06:37:01;;;;;;;30.35;24.60;;;;;;;15.54;100.00;101567.09;5091368;28;20020;-73
2023/05/07 06:39:26;;;;;;;28.00;24.50;;;;;;;15.57;100.00;101572.25;5112508;28;20027;-73
2023/05/07 06:41:52;;;;;;;27.33;23.25;;;;;;;15.65;100.00;101577.25;5093575;28;20032;-73
2023/05/07 06:44:17;;;;;;;26.80;23.90;;;;;;;15.64;100.00;101568.53;5099161;28;20042;-73
2023/05/07 06:46:42;;;;;;;27.30;24.45;;;;;;;15.73;100.00;101577.03;5095655;28;20111;-73
2023/05/07 06:49:08;;;;;;;25.40;22.67;;;;;;;15.80;100.00;101594.34;5103570;28;20024;-72
2023/05/07 06:51:33;;;;;;;25.48;21.63;;;;;;;15.82;100.00;101590.72;5096386;28;20028;-73
2023/05/07 06:53:59;;;;;;;25.35;22.73;;;;;;;15.82;100.00;101592.50;5106737;28;20517;-73
2023/05/07 06:56:25;;;;;;;23.75;20.98;;;;;;;15.73;100.00;101584.91;5100703;28;20023;-73
2023/05/07 06:58:50;;;;;;;25.00;22.35;;;;;;;15.66;100.00;101587.78;5092007;28;20383;-73
2023/05/07 07:01:15;;;;;;;25.70;22.98;;;;;;;15.64;100.00;101586.91;5092061;28;20543;-73
2023/05/07 07:03:41;;;;;;;27.95;22.92;;;;;;;15.57;100.00;101590.66;5091464;28;20028;-74
2023/05/07 07:06:06;;;;;;;26.58;23.70;;;;;;;15.55;100.00;101592.47;5092688;28;20092;-73
2023/05/07 07:08:31;;;;;;;25.77;23.08;;;;;;;15.52;100.00;101594.34;5098487;28;20034;-73
2023/05/07 07:10:57;;;;;;;26.10;23.13;;;;;;;15.53;100.00;101591.69;5096236;28;20094;-73
2023/05/07 07:13:23;;;;;;;25.20;21.52;;;;;;;15.55;100.00;101594.25;5092810;28;20034;-73
2023/05/07 07:15:48;;;;;;;25.13;22.33;;;;;;;15.63;100.00;101592.22;5089386;28;20034;-73
2023/05/07 07:18:13;;;;;;;27.92;22.73;;;;;;;15.65;100.00;101596.50;5095481;28;20028;-73
2023/05/07 07:20:39;;;;;;;25.98;22.15;;;;;;;15.67;100.00;101589.47;5093356;28;20189;-73
2023/05/07 07:23:04;;;;;;;25.45;22.73;;;;;;;15.74;100.00;101590.13;5101637;28;20057;-73
2023/05/07 07:25:30;;;;;;;23.77;21.25;;;;;;;15.80;100.00;101587.31;5099916;28;20024;-73
2023/05/07 07:27:55;;;;;;;23.75;21.27;;;;;;;15.94;100.00;101602.63;5098779;28;20065;-73
2023/05/07 07:30:20;;;;;;;25.85;22.48;;;;;;;16.04;100.00;101603.16;5093375;28;20429;-73
2023/05/07 07:32:46;;;;;;;23.25;20.92;;;;;;;16.09;100.00;101602.09;5092210;28;20024;-73
2023/05/07 07:35:11;;;;;;;24.10;21.58;;;;;;;16.18;100.00;101606.16;5098511;28;20032;-73
2023/05/07 07:37:36;;;;;;;23.42;19.65;;;;;;;16.27;100.00;101605.84;5093686;28;20076;-73
2023/05/07 07:40:03;;;;;;;25.92;21.40;;;;;;;16.39;100.00;101607.19;5091059;28;20064;-73
2023/05/07 07:42:29;;;;;;;25.67;20.80;;;;;;;16.49;100.00;101611.22;5099147;28;20020;-73
2023/05/07 07:44:54;;;;;;;23.67;21.15;;;;;;;16.59;100.00;101609.13;5101088;28;20066;-73
2023/05/07 07:47:19;;;;;;;25.85;21.70;;;;;;;16.72;100.00;101613.00;5087650;28;20039;-72
2023/05/07 07:49:45;;;;;;;24.17;20.70;;;;;;;16.85;100.00;101608.19;5089614;28;20028;-73
2023/05/07 07:52:10;;;;;;;22.75;20.35;;;;;;;16.88;100.00;101615.97;5101645;28;20482;-73
2023/05/07 07:54:35;;;;;;;21.27;19.05;;;;;;;16.99;100.00;101613.78;5097019;28;20024;-73
2023/05/07 07:57:01;;;;;;;22.75;20.17;;;;;;;17.01;100.00;101600.56;5095627;28;20516;-73
2023/05/07 07:59:27;;;;;;;21.98;19.58;;;;;;;17.17;100.00;101617.50;5109876;28;20039;-72
2023/05/07 08:01:55;;;;;;;22.52;19.52;;;;;;;17.26;100.00;101609.22;5088950;28;20112;-73
2023/05/07 08:04:20;;;;;;;22.80;19.15;;;;;;;17.34;100.00;101601.03;5094602;28;20028;-73
2023/05/07 08:06:46;;;;;;;21.30;18.60;;;;;;;17.41;100.00;101605.13;5099341;28;20046;-73
2023/05/07 08:09:14;;;;;;;21.77;19.48;;;;;;;17.42;100.00;101612.09;5111561;28;20035;-73
2023/05/07 08:11:40;;;;;;;21.40;19.02;;;;;;;17.52;100.00;101615.25;5114207;28;20016;-73
2023/05/07 08:14:05;;;;;;;20.65;18.50;;;;;;;17.68;100.00;101612.84;5106221;28;20023;-73
2023/05/07 08:16:30;;;;;;;20.77;18.58;;;;;;;17.96;100.00;101610.81;5113641;28;20039;-73
2023/05/07 08:18:56;;;;;;;21.08;18.90;;;;;;;18.19;100.00;101617.75;5106684;28;20068;-73
2023/05/07 08:21:22;;;;;;;20.83;18.63;;;;;;;18.32;100.00;101607.53;5099527;28;20141;-72
2023/05/07 08:23:47;;;;;;;20.85;18.23;;;;;;;18.57;100.00;101619.63;5112669;28;20028;-73
2023/05/07 08:26:12;;;;;;;20.75;17.40;;;;;;;18.71;100.00;101614.59;5106251;28;20036;-73
2023/05/07 08:28:39;;;;;;;19.75;17.58;;;;;;;18.76;100.00;101620.56;5110232;28;20486;-72
2023/05/07 08:31:04;;;;;;;21.05;18.25;;;;;;;18.82;100.00;101620.28;5110197;28;20028;-72
2023/05/07 08:33:29;;;;;;;20.48;18.40;;;;;;;18.84;100.00;101613.16;5092205;28;21005;-73
2023/05/07 08:35:55;;;;;;;19.55;17.60;;;;;;;18.93;100.00;101625.94;5100271;28;20023;-73
2023/05/07 08:38:20;;;;;;;19.40;17.38;;;;;;;18.97;100.00;101609.94;5106612;28;20020;-73
2023/05/07 08:40:46;;;;;;;18.75;16.75;;;;;;;19.06;100.00;101620.06;5105130;28;20078;-73
2023/05/07 08:43:15;;;;;;;19.20;16.23;;;;;;;18.99;100.00;101618.66;5097519;28;20130;-74
2023/05/07 08:45:41;;;;;;;18.25;16.45;;;;;;;19.09;100.00;101619.94;5110310;28;20019;-74
2023/05/07 08:48:15;;;;;;;17.77;15.98;;;;;;;19.32;100.00;101622.34;5101024;28;20035;-74
2023/05/07 08:50:40;;;;;;;18.27;16.38;;;;;;;19.29;100.00;101627.81;5108113;28;20058;-74
2023/05/07 08:53:05;;;;;;;18.90;17.10;;;;;;;19.28;100.00;101631.34;5110534;28;20464;-74
2023/05/07 08:55:33;;;;;;;19.58;17.45;;;;;;;19.35;100.00;101622.19;5107616;28;20038;-73
2023/05/07 08:57:58;;;;;;;20.58;18.08;;;;;;;19.46;100.00;101629.63;5105728;28;20100;-74
2023/05/07 09:00:23;;;;;;;21.45;17.65;;;;;;;19.66;100.00;101622.56;5103108;28;20520;-73
2023/05/07 09:02:49;;;;;;;18.70;16.90;;;;;;;19.77;100.00;101631.66;5106627;28;20077;-74
2023/05/07 09:05:14;;;;;;;17.88;16.08;;;;;;;19.90;99.59;101626.63;5100226;28;20028;-74
2023/05/07 09:07:39;;;;;;;16.98;15.27;;;;;;;19.93;98.45;101625.59;5092874;28;20028;-74
2023/05/07 09:10:06;;;;;;;19.27;17.17;;;;;;;19.98;94.97;101639.44;5100726;28;20367;-73
2023/05/07 09:12:31;;;;;;;19.00;17.05;;;;;;;19.93;97.81;101634.41;5101599;28;20030;-74
2023/05/07 09:14:56;;;;;;;20.95;17.38;;;;;;;19.93;97.14;101634.41;5114326;28;20628;-74
2023/05/07 09:17:22;;;;;;;18.90;16.90;;;;;;;19.80;97.09;101626.22;5113636;28;20024;-74
2023/05/07 09:19:47;;;;;;;19.73;17.63;;;;;;;19.87;94.70;101637.34;5113205;28;20049;-74
2023/05/07 09:22:13;;;;;;;19.65;17.52;;;;;;;19.98;96.43;101642.09;5114444;28;20029;-73
2023/05/07 09:24:38;;;;;;;20.08;18.08;;;;;;;20.04;94.70;101640.00;5108539;28;20391;-73
2023/05/07 09:27:05;;;;;;;20.35;17.73;;;;;;;19.98;92.64;101642.09;5097693;28;20027;-73
2023/05/07 09:29:35;;;;;;;20.65;18.58;;;;;;;20.00;95.24;101635.78;5096836;28;20115;-72
2023/05/07 09:32:02;;;;;;;20.42;18.35;;;;;;;20.01;93.85;101641.94;5110422;28;20481;-73
2023/05/07 09:34:27;;;;;;;20.20;18.05;;;;;;;20.14;95.23;101640.38;5108604;28;20030;-73
2023/05/07 09:36:53;;;;;;;20.92;18.60;;;;;;;20.09;95.17;101626.53;5103994;28;20379;-72
2023/05/07 09:39:19;;;;;;;20.70;18.60;;;;;;;20.33;91.91;101637.66;5114151;28;20028;-73
2023/05/07 09:41:46;;;;;;;20.55;18.38;;;;;;;20.38;93.26;101646.22;5102760;28;20016;-75
2023/05/07 09:44:14;;;;;;;20.95;18.75;;;;;;;20.54;92.64;101641.88;5098592;28;20023;-74
2023/05/07 09:46:42;;;;;;;20.85;17.92;;;;;;;20.53;92.89;101639.28;5103430;28;20467;-75
2023/05/07 09:49:15;;;;;;;20.48;18.45;;;;;;;20.48;91.27;101638.66;5099313;27;20064;-75
2023/05/07 09:51:45;;;;;;;19.40;17.38;;;;;;;20.52;90.53;101650.84;5110438;28;20023;-75
2023/05/07 09:54:11;;;;;;;19.15;16.85;;;;;;;20.54;91.34;101641.03;5105007;28;20835;-74
2023/05/07 09:56:37;;;;;;;21.83;17.92;;;;;;;20.50;92.10;101640.31;5113894;28;20376;-73
2023/05/07 09:59:03;;;;;;;18.67;16.83;;;;;;;20.60;93.93;101645.13;5110175;27;20032;-73
2023/05/07 10:01:30;;;;;;;19.15;17.25;;;;;;;20.58;89.60;101640.78;5099609;28;20024;-73
2023/05/07 10:03:57;;;;;;;19.05;17.13;;;;;;;20.55;88.20;101632.13;5106460;28;20410;-73
2023/05/07 10:06:25;;;;;;;18.27;16.38;;;;;;;20.50;89.25;101640.31;5110071;28;20394;-73
2023/05/07 10:08:52;;;;;;;19.17;17.00;;;;;;;20.55;90.80;101640.94;5103531;28;20099;-73
2023/05/07 10:11:18;;;;;;;19.52;17.50;;;;;;;20.64;88.98;101638.75;5107901;28;20360;-73
2023/05/07 10:13:44;;;;;;;19.42;17.48;;;;;;;20.68;89.37;101630.53;5113046;28;20016;-73
2023/05/07 10:16:10;;;;;;;19.95;17.50;;;;;;;20.90;85.30;101640.00;5097107;28;20391;-73
2023/05/07 10:18:36;;;;;;;20.27;17.98;;;;;;;20.99;87.81;101647.44;5100640;28;20046;-72
2023/05/07 10:21:16;;;;;;;18.50;16.42;;;;;;;21.34;87.74;101640.19;5094000;28;20031;-73
2023/05/07 10:23:46;;;;;;;17.95;16.15;;;;;;;21.77;86.22;101640.44;5095830;28;20127;-73
2023/05/07 10:26:13;;;;;;;18.67;16.40;;;;;;;22.11;83.43;101641.97;5092053;28;20045;-73
2023/05/07 10:28:40;;;;;;;19.33;17.33;;;;;;;22.41;81.89;101639.31;5093824;28;20067;-73
2023/05/07 10:31:36;;;;;;;18.13;16.23;;;;;;;22.83;80.54;101642.09;5102719;28;20048;-74
2023/05/07 10:34:09;;;;;;;19.65;17.75;;;;;;;22.94;78.97;101639.63;5105184;28;20023;-75
2023/05/07 10:36:35;;;;;;;18.80;16.88;;;;;;;22.97;76.72;101636.78;5098237;28;20395;-73
2023/05/07 10:39:01;;;;;;;16.60;14.73;;;;;;;23.09;74.82;101644.00;5110609;28;20023;-73
2023/05/07 10:41:26;;;;;;;16.17;14.48;;;;;;;23.00;69.71;101644.56;5100283;28;20035;-74
2023/05/07 10:43:51;;;;;;;15.57;13.85;;;;;;;22.92;73.02;101641.50;5098089;28;20032;-75
2023/05/07 10:46:18;;;;;;;16.40;14.70;;;;;;;22.97;71.05;101634.13;5107734;28;20023;-74
2023/05/07 10:49:02;;;;;;;17.38;14.80;;;;;;;23.17;74.78;101639.97;5093219;28;20020;-74
2023/05/07 10:51:29;;;;;;;17.25;14.57;;;;;;;23.06;73.07;101641.53;5089210;28;20028;-74
2023/05/07 10:54:15;;;;;;;17.08;15.35;;;;;;;23.00;75.49;101643.72;5099252;28;20494;-72
2023/05/07 10:56:45;;;;;;;17.15;15.50;;;;;;;22.76;74.33;101636.31;5090479;28;20051;-72
2023/05/07 10:59:20;;;;;;;16.48;14.90;;;;;;;22.85;73.46;101645.50;5111358;28;20020;-72